sensor_id;sensor_type;location;lat;lon;timestamp;pressure;altitude;pressure_sealevel;temperature;humidity
59513;BME280;45330;51.634;5.562;2022-09-13T00:00:37;100940.56;;;16.67;100.00
59513;BME280;45330;51.634;5.562;2022-09-13T00:03:03;100942.31;;;16.66;100.00
59513;BME280;45330;51.634;5.562;2022-09-13T00:05:29;100940.41;;;16.71;100.00
59513;BME280;45330;51.634;5.562;2022-09-13T00:07:55;100930.13;;;16.63;100.00
59513;BME280;45330;51.634;5.562;2022-09-13T00:10:20;100929.38;;;16.60;100.00
59513;BME280;45330;51.634;5.562;2022-09-13T00:12:49;100930.31;;;16.57;100.00
59513;BME280;45330;51.634;5.562;2022-09-13T00:15:15;100922.50;;;16.56;100.00
59513;BME280;45330;51.634;5.562;2022-09-13T00:17:40;100938.06;;;16.62;100.00
59513;BME280;45330;51.634;5.562;2022-09-13T00:20:06;100928.59;;;16.56;100.00
59513;BME280;45330;51.634;5.562;2022-09-13T00:22:33;100932.06;;;16.58;100.00
59513;BME280;45330;51.634;5.562;2022-09-13T00:24:59;100920.63;;;16.59;100.00
59513;BME280;45330;51.634;5.562;2022-09-13T00:27:24;100924.03;;;16.63;100.00
59513;BME280;45330;51.634;5.562;2022-09-13T00:29:50;100926.75;;;16.60;100.00
59513;BME280;45330;51.634;5.562;2022-09-13T00:32:15;100920.63;;;16.59;100.00
59513;BME280;45330;51.634;5.562;2022-09-13T00:34:41;100908.41;;;16.58;100.00
59513;BME280;45330;51.634;5.562;2022-09-13T00:37:06;100908.44;;;16.57;100.00
59513;BME280;45330;51.634;5.562;2022-09-13T00:39:33;100890.34;;;16.48;100.00
59513;BME280;45330;51.634;5.562;2022-09-13T00:41:58;100889.44;;;16.49;100.00
59513;BME280;45330;51.634;5.562;2022-09-13T00:44:54;100897.91;;;16.58;100.00
59513;BME280;45330;51.634;5.562;2022-09-13T00:52:54;100883.28;;;16.48;100.00
59513;BME280;45330;51.634;5.562;2022-09-13T00:55:27;100882.34;;;16.51;100.00
59513;BME280;45330;51.634;5.562;2022-09-13T00:57:58;100879.56;;;16.57;100.00
59513;BME280;45330;51.634;5.562;2022-09-13T01:00:26;100886.50;;;16.58;100.00
59513;BME280;45330;51.634;5.562;2022-09-13T01:02:55;100890.91;;;16.57;100.00
59513;BME280;45330;51.634;5.562;2022-09-13T01:05:24;100884.03;;;16.53;100.00
59513;BME280;45330;51.634;5.562;2022-09-13T01:07:52;100877.25;;;16.46;100.00
59513;BME280;45330;51.634;5.562;2022-09-13T01:10:18;100878.19;;;16.43;100.00
59513;BME280;45330;51.634;5.562;2022-09-13T01:13:07;100871.25;;;16.41;100.00
59513;BME280;45330;51.634;5.562;2022-09-13T01:15:39;100873.00;;;16.42;100.00
59513;BME280;45330;51.634;5.562;2022-09-13T01:18:06;100872.09;;;16.43;100.00
59513;BME280;45330;51.634;5.562;2022-09-13T01:20:59;100897.16;;;16.53;100.00
59513;BME280;45330;51.634;5.562;2022-09-13T01:40:47;100892.75;;;16.55;100.00
59513;BME280;45330;51.634;5.562;2022-09-13T01:43:25;100895.38;;;16.55;100.00
59513;BME280;45330;51.634;5.562;2022-09-13T01:46:12;100891.81;;;16.56;100.00
59513;BME280;45330;51.634;5.562;2022-09-13T01:51:39;100878.78;;;16.53;100.00
59513;BME280;45330;51.634;5.562;2022-09-13T01:56:57;100887.50;;;16.54;100.00
59513;BME280;45330;51.634;5.562;2022-09-13T01:59:33;100888.38;;;16.54;100.00
59513;BME280;45330;51.634;5.562;2022-09-13T02:02:25;100874.47;;;16.51;100.00
59513;BME280;45330;51.634;5.562;2022-09-13T02:04:59;100884.06;;;16.52;100.00
59513;BME280;45330;51.634;5.562;2022-09-13T02:07:32;100880.59;;;16.51;100.00
59513;BME280;45330;51.634;5.562;2022-09-13T02:10:14;100860.75;;;16.41;100.00
59513;BME280;45330;51.634;5.562;2022-09-13T02:12:42;100876.25;;;16.50;100.00
59513;BME280;45330;51.634;5.562;2022-09-13T02:15:15;100866.78;;;16.44;100.00
59513;BME280;45330;51.634;5.562;2022-09-13T02:17:49;100866.06;;;16.39;100.00
59513;BME280;45330;51.634;5.562;2022-09-13T02:20:20;100877.16;;;16.49;100.00
59513;BME280;45330;51.634;5.562;2022-09-13T02:22:51;100855.66;;;16.36;100.00
59513;BME280;45330;51.634;5.562;2022-09-13T02:25:19;100860.94;;;16.35;100.00
59513;BME280;45330;51.634;5.562;2022-09-13T02:27:49;100876.47;;;16.42;100.00
59513;BME280;45330;51.634;5.562;2022-09-13T02:30:16;100856.59;;;16.34;100.00
59513;BME280;45330;51.634;5.562;2022-09-13T02:32:46;100860.06;;;16.36;100.00
59513;BME280;45330;51.634;5.562;2022-09-13T02:35:34;100878.00;;;16.50;100.00
59513;BME280;45330;51.634;5.562;2022-09-13T02:38:15;100867.63;;;16.45;100.00
59513;BME280;45330;51.634;5.562;2022-09-13T02:40:47;100859.13;;;16.37;100.00
59513;BME280;45330;51.634;5.562;2022-09-13T02:43:15;100873.69;;;16.49;100.00
59513;BME280;45330;51.634;5.562;2022-09-13T02:49:00;100877.16;;;16.49;100.00
59513;BME280;45330;51.634;5.562;2022-09-13T02:51:54;100887.59;;;16.51;100.00
59513;BME280;45330;51.634;5.562;2022-09-13T02:54:31;100885.97;;;16.46;100.00
59513;BME280;45330;51.634;5.562;2022-09-13T02:56:58;100876.50;;;16.41;100.00
59513;BME280;45330;51.634;5.562;2022-09-13T02:59:25;100890.38;;;16.46;100.00
59513;BME280;45330;51.634;5.562;2022-09-13T03:02:18;100898.00;;;16.54;100.00
59513;BME280;45330;51.634;5.562;2022-09-13T03:04:45;100897.22;;;16.52;100.00
59513;BME280;45330;51.634;5.562;2022-09-13T03:07:12;100861.22;;;16.25;100.00
59513;BME280;45330;51.634;5.562;2022-09-13T03:09:45;100898.06;;;16.52;100.00
59513;BME280;45330;51.634;5.562;2022-09-13T03:20:13;100897.88;;;16.28;100.00
59513;BME280;45330;51.634;5.562;2022-09-13T03:26:21;100880.78;;;16.15;100.00
59513;BME280;45330;51.634;5.562;2022-09-13T03:39:56;100857.53;;;16.01;100.00
59513;BME280;45330;51.634;5.562;2022-09-13T03:42:31;100875.72;;;16.09;100.00
59513;BME280;45330;51.634;5.562;2022-09-13T03:44:59;100881.72;;;16.12;100.00
59513;BME280;45330;51.634;5.562;2022-09-13T03:47:27;100868.69;;;16.09;100.00
59513;BME280;45330;51.634;5.562;2022-09-13T03:49:55;100865.03;;;16.15;100.00
59513;BME280;45330;51.634;5.562;2022-09-13T03:52:21;100868.53;;;16.14;100.00
59513;BME280;45330;51.634;5.562;2022-09-13T03:54:47;100863.28;;;16.14;100.00
59513;BME280;45330;51.634;5.562;2022-09-13T03:57:15;100872.81;;;16.18;100.00
59513;BME280;45330;51.634;5.562;2022-09-13T03:59:54;100879.88;;;16.16;100.00
59513;BME280;45330;51.634;5.562;2022-09-13T04:02:21;100868.63;;;16.11;100.00
59513;BME280;45330;51.634;5.562;2022-09-13T04:04:47;100867.19;;;16.01;100.00
59513;BME280;45330;51.634;5.562;2022-09-13T04:07:16;100881.03;;;16.06;100.00
59513;BME280;45330;51.634;5.562;2022-09-13T04:09:42;100878.41;;;16.06;100.00
59513;BME280;45330;51.634;5.562;2022-09-13T04:12:08;100868.19;;;15.97;100.00
59513;BME280;45330;51.634;5.562;2022-09-13T04:14:34;100888.16;;;16.02;100.00
59513;BME280;45330;51.634;5.562;2022-09-13T04:17:00;100888.28;;;15.96;100.00
59513;BME280;45330;51.634;5.562;2022-09-13T04:19:25;100896.25;;;15.93;100.00
59513;BME280;45330;51.634;5.562;2022-09-13T04:21:52;100887.78;;;15.83;100.00
59513;BME280;45330;51.634;5.562;2022-09-13T04:24:18;100904.09;;;15.94;100.00
59513;BME280;45330;51.634;5.562;2022-09-13T04:26:48;100888.69;;;15.82;100.00
59513;BME280;45330;51.634;5.562;2022-09-13T04:29:14;100895.53;;;15.88;100.00
59513;BME280;45330;51.634;5.562;2022-09-13T04:31:39;100878.31;;;15.76;100.00
59513;BME280;45330;51.634;5.562;2022-09-13T04:34:04;100895.66;;;15.83;100.00
59513;BME280;45330;51.634;5.562;2022-09-13T04:36:31;100886.88;;;15.84;100.00
59513;BME280;45330;51.634;5.562;2022-09-13T04:38:56;100900.63;;;15.94;100.00
59513;BME280;45330;51.634;5.562;2022-09-13T04:41:25;100904.03;;;15.96;100.00
59513;BME280;45330;51.634;5.562;2022-09-13T04:43:50;100891.16;;;15.88;100.00
59513;BME280;45330;51.634;5.562;2022-09-13T04:46:16;100895.47;;;15.91;100.00
59513;BME280;45330;51.634;5.562;2022-09-13T04:48:41;100911.16;;;15.92;100.00
59513;BME280;45330;51.634;5.562;2022-09-13T04:51:07;100922.34;;;15.99;100.00
59513;BME280;45330;51.634;5.562;2022-09-13T04:53:33;100905.91;;;15.92;100.00
59513;BME280;45330;51.634;5.562;2022-09-13T04:56:02;100896.41;;;15.88;100.00
59513;BME280;45330;51.634;5.562;2022-09-13T04:58:28;100899.88;;;15.89;100.00
59513;BME280;45330;51.634;5.562;2022-09-13T05:01:00;100892.91;;;15.88;100.00
59513;BME280;45330;51.634;5.562;2022-09-13T05:03:25;100895.53;;;15.88;100.00
59513;BME280;45330;51.634;5.562;2022-09-13T05:05:50;100911.03;;;15.97;100.00
59513;BME280;45330;51.634;5.562;2022-09-13T05:08:16;100910.25;;;15.93;100.00
59513;BME280;45330;51.634;5.562;2022-09-13T05:10:41;100925.78;;;16.01;100.00
59513;BME280;45330;51.634;5.562;2022-09-13T05:13:06;100898.16;;;15.88;100.00
59513;BME280;45330;51.634;5.562;2022-09-13T05:15:32;100903.38;;;15.89;100.00
59513;BME280;45330;51.634;5.562;2022-09-13T05:17:57;100915.47;;;15.95;100.00
59513;BME280;45330;51.634;5.562;2022-09-13T05:20:22;100902.50;;;15.89;100.00
59513;BME280;45330;51.634;5.562;2022-09-13T05:22:48;100932.72;;;16.04;100.00
59513;BME280;45330;51.634;5.562;2022-09-13T05:25:13;100926.63;;;16.03;100.00
59513;BME280;45330;51.634;5.562;2022-09-13T05:27:39;100926.38;;;16.11;100.00
59513;BME280;45330;51.634;5.562;2022-09-13T05:30:05;100930.75;;;16.12;100.00
59513;BME280;45330;51.634;5.562;2022-09-13T05:32:31;100929.81;;;16.15;100.00
59513;BME280;45330;51.634;5.562;2022-09-13T05:34:56;100926.22;;;16.17;100.00
59513;BME280;45330;51.634;5.562;2022-09-13T05:37:22;100927.09;;;16.18;100.00
59513;BME280;45330;51.634;5.562;2022-09-13T05:39:47;100929.72;;;16.18;100.00
59513;BME280;45330;51.634;5.562;2022-09-13T05:42:12;100934.78;;;16.24;100.00
59513;BME280;45330;51.634;5.562;2022-09-13T05:44:38;100905.56;;;16.05;100.00
59513;BME280;45330;51.634;5.562;2022-09-13T05:47:03;100934.63;;;16.28;100.00
59513;BME280;45330;51.634;5.562;2022-09-13T05:49:30;100913.81;;;16.22;100.00
59513;BME280;45330;51.634;5.562;2022-09-13T05:51:55;100935.25;;;16.38;100.00
59513;BME280;45330;51.634;5.562;2022-09-13T05:54:20;100917.03;;;16.32;100.00
59513;BME280;45330;51.634;5.562;2022-09-13T05:56:46;100931.56;;;16.45;100.00
59513;BME280;45330;51.634;5.562;2022-09-13T05:59:12;100933.16;;;16.50;100.00
59513;BME280;45330;51.634;5.562;2022-09-13T06:01:38;100922.69;;;16.48;100.00
59513;BME280;45330;51.634;5.562;2022-09-13T06:04:04;100925.06;;;16.57;100.00
59513;BME280;45330;51.634;5.562;2022-09-13T06:06:29;100923.25;;;16.59;100.00
59513;BME280;45330;51.634;5.562;2022-09-13T06:08:55;100930.06;;;16.67;100.00
59513;BME280;45330;51.634;5.562;2022-09-13T06:11:22;100930.81;;;16.70;100.00
59513;BME280;45330;51.634;5.562;2022-09-13T06:13:47;100921.88;;;16.76;100.00
59513;BME280;45330;51.634;5.562;2022-09-13T06:16:14;100937.31;;;16.88;100.00
59513;BME280;45330;51.634;5.562;2022-09-13T06:18:41;100942.28;;;16.97;100.00
59513;BME280;45330;51.634;5.562;2022-09-13T06:21:11;100934.09;;;17.07;100.00
59513;BME280;45330;51.634;5.562;2022-09-13T06:23:41;100931.94;;;17.20;100.00
59513;BME280;45330;51.634;5.562;2022-09-13T06:26:09;100914.53;;;17.15;100.00
59513;BME280;45330;51.634;5.562;2022-09-13T06:28:36;100936.69;;;17.35;100.00
59513;BME280;45330;51.634;5.562;2022-09-13T06:31:12;100948.66;;;17.45;100.00
59513;BME280;45330;51.634;5.562;2022-09-13T06:33:40;100918.16;;;17.40;100.00
59513;BME280;45330;51.634;5.562;2022-09-13T06:38:33;100927.72;;;17.67;100.00
59513;BME280;45330;51.634;5.562;2022-09-13T06:41:07;100906.72;;;17.66;100.00
59513;BME280;45330;51.634;5.562;2022-09-13T06:43:33;100910.00;;;17.73;100.00
59513;BME280;45330;51.634;5.562;2022-09-13T06:46:04;100918.94;;;17.94;100.00
59513;BME280;45330;51.634;5.562;2022-09-13T06:48:32;100932.06;;;17.95;100.00
59513;BME280;45330;51.634;5.562;2022-09-13T06:50:59;100905.91;;;17.91;100.00
59513;BME280;45330;51.634;5.562;2022-09-13T06:53:25;100897.81;;;17.95;100.00
59513;BME280;45330;51.634;5.562;2022-09-13T06:56:15;100918.34;;;18.11;100.00
59513;BME280;45330;51.634;5.562;2022-09-13T06:58:43;100901.03;;;18.04;100.00
59513;BME280;45330;51.634;5.562;2022-09-13T07:01:29;100909.66;;;18.09;100.00
59513;BME280;45330;51.634;5.562;2022-09-13T07:04:01;100919.63;;;18.24;100.00
59513;BME280;45330;51.634;5.562;2022-09-13T07:06:29;100925.34;;;18.36;100.00
59513;BME280;45330;51.634;5.562;2022-09-13T07:08:56;100901.72;;;18.32;100.00
59513;BME280;45330;51.634;5.562;2022-09-13T07:11:24;100929.16;;;18.50;99.75
59513;BME280;45330;51.634;5.562;2022-09-13T07:13:55;100927.34;;;18.52;100.00
59513;BME280;45330;51.634;5.562;2022-09-13T07:16:24;100927.03;;;18.60;100.00
59513;BME280;45330;51.634;5.562;2022-09-13T07:18:53;100919.31;;;18.56;100.00
59513;BME280;45330;51.634;5.562;2022-09-13T07:21:20;100928.63;;;18.64;98.95
59513;BME280;45330;51.634;5.562;2022-09-13T07:23:46;100911.09;;;18.63;99.31
59513;BME280;45330;51.634;5.562;2022-09-13T07:26:11;100944.09;;;18.74;99.26
59513;BME280;45330;51.634;5.562;2022-09-13T07:28:38;100935.38;;;18.72;99.90
59513;BME280;45330;51.634;5.562;2022-09-13T07:31:07;100899.91;;;18.58;100.00
59513;BME280;45330;51.634;5.562;2022-09-13T07:33:34;100905.59;;;18.69;100.00
59513;BME280;45330;51.634;5.562;2022-09-13T07:36:00;100940.84;;;18.91;99.51
59513;BME280;45330;51.634;5.562;2022-09-13T07:38:27;100948.63;;;18.94;99.59
59513;BME280;45330;51.634;5.562;2022-09-13T07:40:56;100932.03;;;18.92;99.48
59513;BME280;45330;51.634;5.562;2022-09-13T07:43:26;100953.28;;;19.09;98.91
59513;BME280;45330;51.634;5.562;2022-09-13T07:46:06;100951.41;;;19.13;100.00
59513;BME280;45330;51.634;5.562;2022-09-13T07:48:34;100934.22;;;19.02;98.85
59513;BME280;45330;51.634;5.562;2022-09-13T07:51:08;100966.47;;;19.31;100.00
59513;BME280;45330;51.634;5.562;2022-09-13T07:53:35;100960.44;;;19.50;99.21
59513;BME280;45330;51.634;5.562;2022-09-13T07:56:10;100974.59;;;19.69;98.74
59513;BME280;45330;51.634;5.562;2022-09-13T07:58:37;100949.84;;;19.72;96.60
59513;BME280;45330;51.634;5.562;2022-09-13T08:03:39;100958.06;;;19.86;95.91
59513;BME280;45330;51.634;5.562;2022-09-13T08:06:06;100971.19;;;20.09;95.92
59513;BME280;45330;51.634;5.562;2022-09-13T08:08:32;100974.06;;;20.23;95.02
59513;BME280;45330;51.634;5.562;2022-09-13T08:10:59;100943.34;;;20.20;94.78
59513;BME280;45330;51.634;5.562;2022-09-13T08:13:25;100958.75;;;20.31;94.30
59513;BME280;45330;51.634;5.562;2022-09-13T08:15:52;100954.03;;;20.38;93.67
59513;BME280;45330;51.634;5.562;2022-09-13T08:18:18;100962.75;;;20.40;93.21
59513;BME280;45330;51.634;5.562;2022-09-13T08:20:43;100963.47;;;20.44;92.77
59513;BME280;45330;51.634;5.562;2022-09-13T08:23:10;100963.41;;;20.45;92.94
59513;BME280;45330;51.634;5.562;2022-09-13T08:25:37;100939.03;;;20.38;93.88
59513;BME280;45330;51.634;5.562;2022-09-13T08:30:33;100969.88;;;20.78;94.80
59513;BME280;45330;51.634;5.562;2022-09-13T08:33:00;100968.66;;;20.85;92.95
59513;BME280;45330;51.634;5.562;2022-09-13T08:35:27;100976.75;;;20.82;93.75
59513;BME280;45330;51.634;5.562;2022-09-13T08:37:52;100972.38;;;20.81;92.04
59513;BME280;45330;51.634;5.562;2022-09-13T08:40:18;100972.22;;;20.84;92.88
59513;BME280;45330;51.634;5.562;2022-09-13T08:42:52;100976.44;;;20.88;92.65
59513;BME280;45330;51.634;5.562;2022-09-13T08:45:21;100962.50;;;20.84;92.61
59513;BME280;45330;51.634;5.562;2022-09-13T08:47:52;100964.06;;;20.88;92.02
59513;BME280;45330;51.634;5.562;2022-09-13T08:50:24;100976.78;;;20.99;92.07
59513;BME280;45330;51.634;5.562;2022-09-13T09:02:06;100982.69;;;21.23;92.72
59513;BME280;45330;51.634;5.562;2022-09-13T09:05:04;100987.38;;;21.36;92.63
59513;BME280;45330;51.634;5.562;2022-09-13T09:07:40;100978.44;;;21.38;89.56
59513;BME280;45330;51.634;5.562;2022-09-13T09:12:45;100975.97;;;21.53;89.25
59513;BME280;45330;51.634;5.562;2022-09-13T09:17:46;100964.84;;;21.64;89.81
59513;BME280;45330;51.634;5.562;2022-09-13T09:20:36;100956.97;;;21.80;90.28
59513;BME280;45330;51.634;5.562;2022-09-13T09:23:13;100964.59;;;22.03;88.24
59513;BME280;45330;51.634;5.562;2022-09-13T09:25:38;100922.84;;;21.91;85.79
59513;BME280;45330;51.634;5.562;2022-09-13T09:28:15;100957.81;;;22.15;86.83
59513;BME280;45330;51.634;5.562;2022-09-13T09:36:40;100964.97;;;22.13;86.55
59513;BME280;45330;51.634;5.562;2022-09-13T09:39:13;100952.00;;;22.24;86.04
59513;BME280;45330;51.634;5.562;2022-09-13T09:41:42;100935.72;;;22.15;84.39
59513;BME280;45330;51.634;5.562;2022-09-13T09:46:36;100955.31;;;22.46;84.49
59513;BME280;45330;51.634;5.562;2022-09-13T09:49:20;100956.19;;;22.62;83.61
59513;BME280;45330;51.634;5.562;2022-09-13T09:52:13;100949.88;;;22.81;81.67
59513;BME280;45330;51.634;5.562;2022-09-13T09:54:40;100958.16;;;22.90;81.42
59513;BME280;45330;51.634;5.562;2022-09-13T09:57:06;100939.25;;;22.81;81.18
59513;BME280;45330;51.634;5.562;2022-09-13T09:59:32;100961.50;;;23.10;81.21
59513;BME280;45330;51.634;5.562;2022-09-13T10:01:59;100964.50;;;23.20;80.01
59513;BME280;45330;51.634;5.562;2022-09-13T10:04:27;100965.19;;;23.07;79.24
59513;BME280;45330;51.634;5.562;2022-09-13T10:07:09;100949.53;;;23.03;81.25
59513;BME280;45330;51.634;5.562;2022-09-13T10:09:36;100965.28;;;23.22;79.10
59513;BME280;45330;51.634;5.562;2022-09-13T10:12:03;100942.16;;;23.24;78.79
59513;BME280;45330;51.634;5.562;2022-09-13T10:14:38;100957.19;;;23.39;78.52
59513;BME280;45330;51.634;5.562;2022-09-13T10:17:16;100965.34;;;23.67;79.62
59513;BME280;45330;51.634;5.562;2022-09-13T10:22:39;100943.59;;;23.60;74.86
59513;BME280;45330;51.634;5.562;2022-09-13T10:25:25;100945.50;;;23.58;77.75
59513;BME280;45330;51.634;5.562;2022-09-13T10:27:56;100944.56;;;23.59;77.09
59513;BME280;45330;51.634;5.562;2022-09-13T10:30:31;100929.66;;;23.71;77.73
59513;BME280;45330;51.634;5.562;2022-09-13T10:32:59;100937.31;;;23.46;74.93
59513;BME280;45330;51.634;5.562;2022-09-13T10:35:25;100934.78;;;23.29;77.37
59513;BME280;45330;51.634;5.562;2022-09-13T10:37:51;100944.03;;;23.22;79.53
59513;BME280;45330;51.634;5.562;2022-09-13T10:40:37;100952.72;;;23.40;80.26
59513;BME280;45330;51.634;5.562;2022-09-13T10:43:06;100930.38;;;23.14;78.24
59513;BME280;45330;51.634;5.562;2022-09-13T10:45:39;100946.28;;;23.14;77.49
59513;BME280;45330;51.634;5.562;2022-09-13T10:48:12;100927.44;;;22.86;76.58
59513;BME280;45330;51.634;5.562;2022-09-13T10:50:39;100945.94;;;23.04;77.61
59513;BME280;45330;51.634;5.562;2022-09-13T10:53:42;100944.34;;;23.32;76.86
59513;BME280;45330;51.634;5.562;2022-09-13T10:56:23;100944.91;;;23.22;74.63
59513;BME280;45330;51.634;5.562;2022-09-13T10:58:49;100940.25;;;23.26;75.91
59513;BME280;45330;51.634;5.562;2022-09-13T11:01:36;100944.16;;;23.51;75.88
59513;BME280;45330;51.634;5.562;2022-09-13T11:06:48;100927.94;;;24.00;75.38
59513;BME280;45330;51.634;5.562;2022-09-13T11:12:18;100937.41;;;24.33;73.08
59513;BME280;45330;51.634;5.562;2022-09-13T11:25:54;100909.50;;;23.83;73.35
59513;BME280;45330;51.634;5.562;2022-09-13T11:42:17;100913.81;;;24.00;76.57
59513;BME280;45330;51.634;5.562;2022-09-13T11:47:51;100916.47;;;24.00;74.90
59513;BME280;45330;51.634;5.562;2022-09-13T11:55:52;100913.56;;;24.60;70.96
59513;BME280;45330;51.634;5.562;2022-09-13T11:58:33;100921.19;;;24.94;70.43
59513;BME280;45330;51.634;5.562;2022-09-13T12:01:04;100908.97;;;25.04;68.87
59513;BME280;45330;51.634;5.562;2022-09-13T12:03:48;100897.78;;;24.72;69.90
59513;BME280;45330;51.634;5.562;2022-09-13T12:06:30;100904.25;;;24.53;70.59
59513;BME280;45330;51.634;5.562;2022-09-13T12:09:10;100895.59;;;24.49;70.88
59513;BME280;45330;51.634;5.562;2022-09-13T12:12:28;100895.31;;;24.69;67.32
59513;BME280;45330;51.634;5.562;2022-09-13T12:14:42;100888.59;;;24.34;70.12
59513;BME280;45330;51.634;5.562;2022-09-13T12:17:42;100891.28;;;24.20;72.71
59513;BME280;45330;51.634;5.562;2022-09-13T12:20:23;100908.28;;;24.03;72.86
59513;BME280;45330;51.634;5.562;2022-09-13T12:22:53;100894.78;;;23.77;73.19
59513;BME280;45330;51.634;5.562;2022-09-13T12:25:25;100908.22;;;23.74;74.53
59513;BME280;45330;51.634;5.562;2022-09-13T12:28:09;100914.50;;;23.73;74.61
59513;BME280;45330;51.634;5.562;2022-09-13T12:30:45;100909.34;;;23.70;74.72
59513;BME280;45330;51.634;5.562;2022-09-13T12:33:14;100905.22;;;23.80;75.09
59513;BME280;45330;51.634;5.562;2022-09-13T12:35:49;100880.38;;;23.95;74.14
59513;BME280;45330;51.634;5.562;2022-09-13T12:41:22;100890.53;;;24.74;71.23
59513;BME280;45330;51.634;5.562;2022-09-13T12:44:39;100903.28;;;24.96;70.45
59513;BME280;45330;51.634;5.562;2022-09-13T12:47:36;100898.19;;;24.65;70.58
59513;BME280;45330;51.634;5.562;2022-09-13T12:55:43;100891.00;;;24.39;70.08
59513;BME280;45330;51.634;5.562;2022-09-13T13:01:14;100878.56;;;24.81;67.82
59513;BME280;45330;51.634;5.562;2022-09-13T13:04:09;100884.63;;;24.83;66.09
59513;BME280;45330;51.634;5.562;2022-09-13T13:06:46;100872.09;;;24.71;69.92
59513;BME280;45330;51.634;5.562;2022-09-13T13:09:30;100889.25;;;24.94;68.45
59513;BME280;45330;51.634;5.562;2022-09-13T13:11:59;100891.13;;;24.92;66.95
59513;BME280;45330;51.634;5.562;2022-09-13T13:17:36;100898.75;;;24.42;69.57
59513;BME280;45330;51.634;5.562;2022-09-13T13:23:35;100891.75;;;24.12;69.69
59513;BME280;45330;51.634;5.562;2022-09-13T13:31:40;100890.88;;;24.26;68.42
59513;BME280;45330;51.634;5.562;2022-09-13T13:59:51;100860.25;;;24.62;65.19
59513;BME280;45330;51.634;5.562;2022-09-13T14:02:20;100847.47;;;24.81;64.79
59513;BME280;45330;51.634;5.562;2022-09-13T14:21:24;100865.84;;;25.52;62.44
59513;BME280;45330;51.634;5.562;2022-09-13T14:24:26;100862.31;;;25.51;61.82
59513;BME280;45330;51.634;5.562;2022-09-13T14:26:57;100857.41;;;25.32;62.63
59513;BME280;45330;51.634;5.562;2022-09-13T14:29:24;100867.78;;;25.23;62.11
59513;BME280;45330;51.634;5.562;2022-09-13T14:32:01;100869.69;;;25.08;61.89
59513;BME280;45330;51.634;5.562;2022-09-13T14:34:35;100854.53;;;24.68;61.59
59513;BME280;45330;51.634;5.562;2022-09-13T14:37:05;100867.00;;;24.68;61.73
59513;BME280;45330;51.634;5.562;2022-09-13T14:39:31;100866.50;;;24.75;62.28
59513;BME280;45330;51.634;5.562;2022-09-13T14:42:13;100870.50;;;24.68;63.41
59513;BME280;45330;51.634;5.562;2022-09-13T14:44:46;100866.44;;;24.48;63.83
59513;BME280;45330;51.634;5.562;2022-09-13T14:47:28;100850.63;;;24.32;65.48
59513;BME280;45330;51.634;5.562;2022-09-13T14:50:00;100861.97;;;24.48;64.48
59513;BME280;45330;51.634;5.562;2022-09-13T14:55:02;100867.59;;;24.44;64.92
59513;BME280;45330;51.634;5.562;2022-09-13T14:57:32;100826.53;;;24.21;66.40
59513;BME280;45330;51.634;5.562;2022-09-13T15:00:06;100846.34;;;24.29;66.08
59513;BME280;45330;51.634;5.562;2022-09-13T15:02:37;100850.19;;;24.11;66.41
59513;BME280;45330;51.634;5.562;2022-09-13T15:05:07;100853.47;;;24.14;66.53
59513;BME280;45330;51.634;5.562;2022-09-13T15:07:38;100845.13;;;24.06;66.85
59513;BME280;45330;51.634;5.562;2022-09-13T15:12:48;100845.44;;;23.87;67.43
59513;BME280;45330;51.634;5.562;2022-09-13T15:15:33;100863.25;;;23.85;68.92
59513;BME280;45330;51.634;5.562;2022-09-13T15:18:22;100865.44;;;23.78;69.64
59513;BME280;45330;51.634;5.562;2022-09-13T15:25:56;100855.56;;;23.52;69.71
59513;BME280;45330;51.634;5.562;2022-09-13T15:28:29;100857.34;;;23.51;70.39
59513;BME280;45330;51.634;5.562;2022-09-13T15:30:57;100861.72;;;23.67;70.72
59513;BME280;45330;51.634;5.562;2022-09-13T15:33:25;100864.56;;;23.63;69.65
59513;BME280;45330;51.634;5.562;2022-09-13T15:35:51;100866.09;;;23.53;71.02
59513;BME280;45330;51.634;5.562;2022-09-13T15:38:30;100852.81;;;23.53;71.70
59513;BME280;45330;51.634;5.562;2022-09-13T15:43:36;100859.94;;;23.22;71.64
59513;BME280;45330;51.634;5.562;2022-09-13T15:46:02;100858.41;;;23.18;73.10
59513;BME280;45330;51.634;5.562;2022-09-13T15:48:33;100841.91;;;22.97;73.40
59513;BME280;45330;51.634;5.562;2022-09-13T15:51:09;100849.50;;;23.03;73.05
59513;BME280;45330;51.634;5.562;2022-09-13T15:53:36;100836.19;;;22.89;72.99
59513;BME280;45330;51.634;5.562;2022-09-13T15:56:03;100849.06;;;22.81;73.36
59513;BME280;45330;51.634;5.562;2022-09-13T15:58:29;100849.31;;;22.76;74.20
59513;BME280;45330;51.634;5.562;2022-09-13T16:00:55;100842.47;;;22.72;74.28
59513;BME280;45330;51.634;5.562;2022-09-13T16:03:20;100832.16;;;22.67;74.65
59513;BME280;45330;51.634;5.562;2022-09-13T16:05:46;100842.81;;;22.66;75.22
59513;BME280;45330;51.634;5.562;2022-09-13T16:08:11;100813.75;;;22.48;75.10
59513;BME280;45330;51.634;5.562;2022-09-13T16:10:37;100833.69;;;22.55;74.20
59513;BME280;45330;51.634;5.562;2022-09-13T16:13:03;100836.78;;;22.48;73.89
59513;BME280;45330;51.634;5.562;2022-09-13T16:15:29;100840.38;;;22.47;74.87
59513;BME280;45330;51.634;5.562;2022-09-13T16:17:54;100831.28;;;22.35;74.01
59513;BME280;45330;51.634;5.562;2022-09-13T16:20:20;100835.78;;;22.33;74.66
59513;BME280;45330;51.634;5.562;2022-09-13T16:22:45;100825.69;;;22.23;75.46
59513;BME280;45330;51.634;5.562;2022-09-13T16:25:12;100850.44;;;22.24;74.17
59513;BME280;45330;51.634;5.562;2022-09-13T16:27:39;100796.72;;;21.88;74.43
59513;BME280;45330;51.634;5.562;2022-09-13T16:30:06;100837.41;;;22.03;75.94